createdAt,value
2023-01-13T00:04:37.860Z,6.70
2023-01-13T00:09:41.294Z,6.50
2023-01-13T00:14:44.697Z,6.70
2023-01-13T00:19:50.572Z,6.70
2023-01-13T00:24:53.968Z,6.80
2023-01-13T00:29:57.388Z,6.90
2023-01-13T00:35:02.155Z,7.00
2023-01-13T00:40:06.287Z,7.00
2023-01-13T00:45:10.172Z,7.00
2023-01-13T00:50:15.437Z,7.20
2023-01-13T00:55:18.884Z,7.20
2023-01-13T01:00:22.513Z,7.20
2023-01-13T01:05:27.334Z,7.20
2023-01-13T01:10:30.796Z,7.20
2023-01-13T01:15:34.174Z,7.20
2023-01-13T01:20:39.685Z,7.30
2023-01-13T01:25:43.073Z,7.20
2023-01-13T01:30:46.510Z,7.30
2023-01-13T01:35:51.375Z,7.20
2023-01-13T01:40:54.820Z,7.20
2023-01-13T01:45:58.199Z,7.20
2023-01-13T01:51:04.154Z,7.20
2023-01-13T01:56:10.575Z,7.20
2023-01-13T02:01:14.651Z,7.20
2023-01-13T02:06:20.302Z,7.20
2023-01-13T02:11:51.756Z,7.20
2023-01-13T02:17:05.024Z,7.10
2023-01-13T02:22:31.385Z,7.20
2023-01-13T02:28:14.933Z,7.30
2023-01-13T02:33:37.151Z,7.30
2023-01-13T02:38:46.356Z,7.40
2023-01-13T02:44:11.019Z,7.60
2023-01-13T02:49:22.170Z,7.70
2023-01-13T02:54:29.720Z,7.90
2023-01-13T02:59:33.852Z,7.90
2023-01-13T03:04:58.656Z,7.90
2023-01-13T03:10:08.985Z,7.90
2023-01-13T03:15:18.682Z,7.80
2023-01-13T03:20:27.587Z,7.80
2023-01-13T03:25:34.400Z,7.80
2023-01-13T03:30:43.189Z,7.80
2023-01-13T03:35:52.274Z,7.80
2023-01-13T03:40:59.869Z,7.80
2023-01-13T03:46:08.526Z,7.80
2023-01-13T03:51:18.963Z,7.80
2023-01-13T03:56:27.961Z,7.80
2023-01-13T04:01:38.346Z,10.30
2023-01-13T04:06:48.626Z,7.90
2023-01-13T04:11:57.751Z,7.90
2023-01-13T04:17:01.052Z,8.10
2023-01-13T04:22:05.728Z,8.10
2023-01-13T04:27:09.014Z,8.00
2023-01-13T04:32:12.263Z,8.00
2023-01-13T04:37:16.924Z,8.00
2023-01-13T04:42:20.175Z,8.00
2023-01-13T04:47:23.455Z,8.30
2023-01-13T04:52:28.119Z,8.40
2023-01-13T04:57:33.297Z,8.50
2023-01-13T05:02:36.821Z,8.50
2023-01-13T05:07:41.531Z,8.50
2023-01-13T05:13:02.279Z,8.60
2023-01-13T05:18:06.363Z,8.60
2023-01-13T05:23:27.653Z,8.60
2023-01-13T05:28:33.357Z,8.50
2023-01-13T05:33:37.336Z,8.60
2023-01-13T05:38:42.390Z,8.70
2023-01-13T05:43:45.642Z,8.70
2023-01-13T05:48:49.009Z,8.70
2023-01-13T05:53:53.635Z,8.70
2023-01-13T05:58:56.879Z,8.80
2023-01-13T06:04:00.186Z,8.90
2023-01-13T06:09:05.001Z,8.90
2023-01-13T06:14:08.392Z,9.00
2023-01-13T06:19:13.143Z,9.00
2023-01-13T06:24:17.774Z,8.90
2023-01-13T06:29:21.001Z,8.90
2023-01-13T06:34:24.436Z,8.90
2023-01-13T06:39:31.253Z,9.00
2023-01-13T06:44:34.612Z,8.90
2023-01-13T06:49:37.848Z,8.80
2023-01-13T06:54:42.471Z,9.00
2023-01-13T06:59:45.731Z,9.10
2023-01-13T07:04:48.975Z,9.20
2023-01-13T07:09:53.644Z,9.10
2023-01-13T07:15:14.462Z,9.20
2023-01-13T07:20:18.100Z,9.20
2023-01-13T07:25:22.974Z,9.30
2023-01-13T07:30:26.293Z,9.30
2023-01-13T07:35:29.635Z,9.30
2023-01-13T07:40:34.267Z,9.30
2023-01-13T07:45:37.576Z,9.40
2023-01-13T07:50:43.940Z,9.30
2023-01-13T07:55:48.800Z,9.30
2023-01-13T08:00:52.469Z,9.30
2023-01-13T08:05:55.910Z,9.30
2023-01-13T08:11:01.827Z,9.20
2023-01-13T08:16:07.730Z,9.30
2023-01-13T08:21:13.778Z,9.20
2023-01-13T08:26:19.454Z,9.40
2023-01-13T08:31:22.730Z,9.30
2023-01-13T08:36:26.208Z,9.40
2023-01-13T08:41:48.498Z,9.30
2023-01-13T08:46:51.950Z,9.40
2023-01-13T08:51:56.237Z,9.50
2023-01-13T08:57:03.352Z,9.50
2023-01-13T09:02:14.023Z,9.60
2023-01-13T09:07:18.673Z,9.60
2023-01-13T09:12:40.838Z,9.60
2023-01-13T09:17:44.075Z,9.60
2023-01-13T09:22:47.296Z,9.70
2023-01-13T09:27:51.928Z,9.70
2023-01-13T09:33:18.453Z,9.70
2023-01-13T09:38:21.715Z,9.70
2023-01-13T09:43:48.310Z,9.70
2023-01-13T09:48:54.580Z,9.70
2023-01-13T09:54:04.114Z,9.80
2023-01-13T09:59:11.749Z,9.80
2023-01-13T10:04:16.687Z,9.90
2023-01-13T10:09:25.329Z,9.90
2023-01-13T10:14:38.869Z,10.10
2023-01-13T10:19:47.233Z,10.20
2023-01-13T10:25:23.101Z,10.30
2023-01-13T10:30:34.235Z,10.30
2023-01-13T10:35:50.264Z,10.30
2023-01-13T10:40:55.606Z,10.40
2023-01-13T10:46:03.511Z,10.90
2023-01-13T10:51:20.033Z,10.80
2023-01-13T10:56:25.391Z,10.70
2023-01-13T11:01:30.702Z,10.80
2023-01-13T11:06:35.173Z,10.90
2023-01-13T11:11:41.390Z,11.00
2023-01-13T11:16:53.700Z,11.00
2023-01-13T11:22:02.915Z,11.00
2023-01-13T11:27:09.491Z,10.90
2023-01-13T11:32:19.667Z,10.90
2023-01-13T11:37:26.484Z,11.00
2023-01-13T11:42:35.287Z,10.90
2023-01-13T11:47:41.316Z,10.90
2023-01-13T11:53:13.227Z,10.90
2023-01-13T11:58:49.617Z,10.90
2023-01-13T12:04:09.997Z,10.90
2023-01-13T12:09:38.863Z,10.50
2023-01-13T12:14:56.262Z,10.00
2023-01-13T12:20:09.783Z,9.80
2023-01-13T12:25:21.726Z,9.40
2023-01-13T12:30:28.389Z,8.90
2023-01-13T12:35:40.969Z,8.60
2023-01-13T12:40:52.711Z,8.40
2023-01-13T12:46:34.369Z,8.00
2023-01-13T12:52:03.441Z,8.00
2023-01-13T12:57:21.858Z,8.20
2023-01-13T13:02:39.216Z,8.20
2023-01-13T13:07:46.574Z,8.20
2023-01-13T13:13:16.862Z,8.00
2023-01-13T13:18:28.548Z,5.50
2023-01-13T13:24:03.129Z,8.00
2023-01-13T13:29:28.645Z,8.00
2023-01-13T13:34:39.863Z,8.00
2023-01-13T13:40:03.047Z,8.00
2023-01-13T13:45:34.381Z,7.90
2023-01-13T13:50:37.697Z,8.00
2023-01-13T13:55:54.630Z,7.90
2023-01-13T14:00:59.146Z,7.80
2023-01-13T14:06:05.522Z,7.70
2023-01-13T14:11:27.697Z,7.60
2023-01-13T14:16:32.028Z,7.60
2023-01-13T14:21:35.365Z,7.50
2023-01-13T14:26:39.972Z,7.50
2023-01-13T14:31:44.732Z,7.50
2023-01-13T14:36:51.171Z,7.40
2023-01-13T14:41:55.903Z,7.50
2023-01-13T14:47:01.243Z,7.40
2023-01-13T14:52:13.720Z,7.40
2023-01-13T14:57:25.517Z,7.30
2023-01-13T15:02:40.955Z,7.20
2023-01-13T15:07:50.685Z,7.20
2023-01-13T15:12:57.811Z,7.20
2023-01-13T15:18:01.958Z,7.20
2023-01-13T15:23:05.230Z,7.20
2023-01-13T15:28:18.646Z,7.20
2023-01-13T15:33:23.291Z,7.20
2023-01-13T15:38:26.929Z,7.20
2023-01-13T15:43:48.864Z,7.10
2023-01-13T15:48:53.117Z,7.00
2023-01-13T15:54:00.651Z,7.00
2023-01-13T15:59:06.049Z,6.80
2023-01-13T16:04:10.830Z,6.90
2023-01-13T16:09:15.102Z,6.60
2023-01-13T16:14:19.775Z,6.50
2023-01-13T16:19:23.223Z,6.50
2023-01-13T16:24:26.577Z,6.50
2023-01-13T16:29:31.637Z,6.40
2023-01-13T16:34:35.064Z,6.30
2023-01-13T16:39:38.405Z,6.10
2023-01-13T16:44:46.678Z,6.10
2023-01-13T16:49:49.897Z,6.10
2023-01-13T16:54:53.142Z,6.10
2023-01-13T16:59:57.923Z,6.10
2023-01-13T17:05:01.163Z,6.00
2023-01-13T17:10:04.879Z,5.90
2023-01-13T17:15:12.567Z,5.90
2023-01-13T17:20:16.755Z,5.90
2023-01-13T17:25:20.187Z,5.90
2023-01-13T17:30:24.902Z,5.80
2023-01-13T17:35:28.134Z,5.90
2023-01-13T17:40:31.419Z,5.80
2023-01-13T17:45:36.227Z,5.80
2023-01-13T17:50:39.692Z,5.80
2023-01-13T17:55:42.915Z,5.80
2023-01-13T18:00:48.225Z,5.70
2023-01-13T18:05:51.503Z,5.60
2023-01-13T18:10:57.471Z,5.70
2023-01-13T18:16:04.779Z,5.60
2023-01-13T18:21:26.076Z,5.50
2023-01-13T18:26:47.263Z,5.50
2023-01-13T18:31:52.524Z,5.40
2023-01-13T18:36:55.730Z,5.30
2023-01-13T18:42:16.591Z,5.20
2023-01-13T18:47:21.514Z,5.10
2023-01-13T18:52:25.139Z,5.20
2023-01-13T18:57:28.523Z,5.20
2023-01-13T19:02:33.151Z,5.10
2023-01-13T19:07:36.777Z,5.10
2023-01-13T19:12:40.121Z,5.00
2023-01-13T19:17:45.683Z,5.00
2023-01-13T19:22:54.098Z,5.00
2023-01-13T19:27:57.440Z,4.90
2023-01-13T19:33:02.120Z,4.80
2023-01-13T19:38:05.440Z,4.90
2023-01-13T19:43:27.317Z,4.90
2023-01-13T19:48:32.047Z,4.90
2023-01-13T19:53:35.648Z,4.90
2023-01-13T19:58:39.028Z,4.70
2023-01-13T20:03:46.032Z,4.70
2023-01-13T20:08:49.713Z,4.80
2023-01-13T20:13:53.195Z,4.70
2023-01-13T20:18:58.162Z,4.80
2023-01-13T20:24:01.596Z,4.80
2023-01-13T20:29:05.129Z,4.80
2023-01-13T20:34:10.615Z,4.80
2023-01-13T20:39:16.687Z,4.80
2023-01-13T20:44:20.450Z,4.80
2023-01-13T20:49:26.372Z,4.90
2023-01-13T20:54:29.862Z,5.00
2023-01-13T20:59:33.281Z,5.00
2023-01-13T21:04:38.293Z,5.10
2023-01-13T21:09:41.616Z,5.10
2023-01-13T21:15:02.409Z,5.30
2023-01-13T21:20:12.472Z,5.40
2023-01-13T21:25:16.728Z,5.50
2023-01-13T21:30:20.550Z,5.60
2023-01-13T21:35:25.251Z,4.00
2023-01-13T21:40:28.933Z,5.70
2023-01-13T21:45:49.660Z,5.80
2023-01-13T21:50:54.378Z,5.70
2023-01-13T21:55:57.712Z,5.70
2023-01-13T22:01:03.975Z,5.80
2023-01-13T22:06:08.981Z,5.60
2023-01-13T22:11:13.005Z,5.50
2023-01-13T22:16:16.502Z,5.50
2023-01-13T22:21:21.301Z,5.60
2023-01-13T22:26:24.674Z,5.60
2023-01-13T22:31:28.092Z,5.50
2023-01-13T22:36:33.627Z,5.50
2023-01-13T22:41:36.987Z,5.40
2023-01-13T22:46:40.736Z,5.20
2023-01-13T22:51:46.709Z,5.20
2023-01-13T22:56:49.956Z,5.20
2023-01-13T23:01:53.264Z,5.20
2023-01-13T23:06:57.882Z,5.30
2023-01-13T23:12:01.279Z,5.40
2023-01-13T23:17:07.241Z,5.50
2023-01-13T23:22:13.269Z,7.60
2023-01-13T23:27:16.671Z,5.50
2023-01-13T23:32:20.034Z,5.60
2023-01-13T23:37:24.985Z,5.50
2023-01-13T23:42:28.459Z,5.50
2023-01-13T23:47:31.682Z,5.50
2023-01-13T23:52:36.277Z,5.40
2023-01-13T23:57:40.849Z,5.60
